Time;durP1;ratioP1;P1;durP2;ratioP2;P2;SDS_P1;SDS_P2;PMS_P1;PMS_P2;Temp;Humidity;BMP_temperature;BMP_pressure;BME280_temperature;BME280_humidity;BME280_pressure;Samples;Min_cycle;Max_cycle;Signal;HPM_P1;HPM_P2
2022/09/23 00:02:28;;;;;;;16.25;8.68;;;;;;;8.41;100.00;101759.31;5289276;28;20034;-71
2022/09/23 00:04:59;;;;;;;15.30;8.57;;;;;;;8.39;100.00;101755.94;5281528;28;20026;-71
2022/09/23 00:07:29;;;;;;;16.50;9.40;;;;;;;8.37;100.00;101749.00;5281287;28;20402;-70
2022/09/23 00:10:00;;;;;;;19.88;8.77;;;;;;;8.38;100.00;101742.69;5267768;28;20085;-71
2022/09/23 00:12:30;;;;;;;15.07;7.20;;;;;;;8.32;100.00;101739.53;5282719;28;20027;-71
2022/09/23 00:15:02;;;;;;;11.43;7.32;;;;;;;8.26;100.00;101742.72;5279099;28;20554;-71
2022/09/23 00:17:32;;;;;;;20.13;8.65;;;;;;;8.24;100.00;101738.50;5267504;28;20032;-70
2022/09/23 00:20:03;;;;;;;11.43;8.20;;;;;;;8.20;100.00;101740.56;5267557;28;20527;-70
2022/09/23 00:22:35;;;;;;;13.25;8.63;;;;;;;8.16;100.00;101736.44;5267176;28;20111;-70
2022/09/23 00:25:08;;;;;;;13.93;8.57;;;;;;;8.12;100.00;101737.69;5266614;28;20493;-71
2022/09/23 00:27:39;;;;;;;15.02;7.68;;;;;;;8.13;100.00;101733.19;5273487;28;20138;-71
2022/09/23 00:30:10;;;;;;;13.90;7.53;;;;;;;8.02;100.00;101734.94;5280812;28;20020;-70
2022/09/23 00:32:40;;;;;;;9.13;5.90;;;;;;;7.98;100.00;101738.84;5280797;28;20046;-70
2022/09/23 00:35:11;;;;;;;11.05;6.38;;;;;;;7.98;100.00;101736.19;5282084;28;20474;-70
2022/09/23 00:37:42;;;;;;;11.05;6.05;;;;;;;7.95;100.00;101728.41;5288282;28;20098;-70
2022/09/23 00:40:13;;;;;;;12.73;7.53;;;;;;;7.89;100.00;101730.75;5271869;28;20028;-70
2022/09/23 00:42:47;;;;;;;14.32;8.88;;;;;;;7.82;100.00;101741.06;5273465;28;20022;-70
2022/09/23 00:45:18;;;;;;;15.57;9.75;;;;;;;7.75;100.00;101732.72;5287478;28;20098;-71
2022/09/23 00:47:53;;;;;;;15.20;8.63;;;;;;;7.69;100.00;101730.56;5275815;28;20031;-71
2022/09/23 00:50:26;;;;;;;13.68;9.00;;;;;;;7.63;100.00;101728.41;5280597;28;20035;-71
2022/09/23 00:52:59;;;;;;;20.35;9.70;;;;;;;7.59;100.00;101723.44;5280676;28;20134;-70
2022/09/23 00:55:35;;;;;;;16.63;9.55;;;;;;;7.60;100.00;101725.97;5266094;28;20024;-71
2022/09/23 00:58:09;;;;;;;17.58;10.00;;;;;;;7.61;100.00;101726.81;5280567;28;20519;-70
2022/09/23 01:00:41;;;;;;;11.30;7.40;;;;;;;7.64;100.00;101729.25;5266713;28;20393;-71
2022/09/23 01:03:13;;;;;;;20.85;9.07;;;;;;;7.71;100.00;101733.09;5273567;28;20024;-70
2022/09/23 01:05:44;;;;;;;16.77;8.85;;;;;;;7.69;100.00;101724.38;5266195;28;20032;-71
2022/09/23 01:08:15;;;;;;;17.52;9.52;;;;;;;7.68;100.00;101725.34;5266734;28;20020;-71
2022/09/23 01:11:26;;;;;;;20.90;8.55;;;;;;;7.64;100.00;101730.09;5266075;28;20740;-71
2022/09/23 01:14:19;;;;;;;17.52;9.38;;;;;;;7.63;100.00;101731.09;5266265;28;20020;-71
2022/09/23 01:17:26;;;;;;;21.40;8.88;;;;;;;7.60;100.00;101728.66;5266326;28;20385;-71
2022/09/23 01:20:15;;;;;;;16.90;10.05;;;;;;;7.58;100.00;101729.72;5266169;28;20035;-70
2022/09/23 01:23:09;;;;;;;20.83;10.18;;;;;;;7.58;100.00;101725.28;5279775;28;20028;-71
2022/09/23 01:26:16;;;;;;;12.43;8.18;;;;;;;7.60;100.00;101725.97;5269765;28;20023;-71
2022/09/23 01:29:40;;;;;;;14.88;8.40;;;;;;;7.59;100.00;101723.44;5283076;28;20049;-71
2022/09/23 01:32:21;;;;;;;14.32;8.02;;;;;;;7.56;100.00;101721.00;5287170;28;20106;-71
2022/09/23 01:35:16;;;;;;;13.48;7.70;;;;;;;7.52;100.00;101726.59;5286468;28;20026;-71
2022/09/23 01:37:56;;;;;;;14.07;8.20;;;;;;;7.48;100.00;101719.81;5275386;28;20047;-70
2022/09/23 01:40:47;;;;;;;12.40;8.27;;;;;;;7.49;100.00;101726.84;5282812;28;20020;-70
2022/09/23 01:43:41;;;;;;;16.35;9.65;;;;;;;7.52;100.00;101723.06;5279804;28;20056;-70
2022/09/23 01:46:41;;;;;;;16.38;9.15;;;;;;;7.52;100.00;101729.25;5277070;28;20106;-70
2022/09/23 01:49:33;;;;;;;14.68;8.60;;;;;;;7.50;100.00;101717.03;5275632;28;20485;-73
2022/09/23 01:52:13;;;;;;;15.85;9.50;;;;;;;7.47;100.00;101712.75;5280513;28;20028;-71
2022/09/23 01:54:54;;;;;;;17.77;10.40;;;;;;;7.45;100.00;101706.72;5279390;28;20030;-71
2022/09/23 01:57:38;;;;;;;14.13;9.32;;;;;;;7.42;100.00;101708.78;5267318;28;20477;-70
2022/09/23 02:00:13;;;;;;;15.82;9.63;;;;;;;7.40;100.00;101706.25;5281427;28;20099;-71
2022/09/23 02:03:04;;;;;;;18.80;10.25;;;;;;;7.37;100.00;101710.97;5274962;28;20023;-70
2022/09/23 02:05:43;;;;;;;21.13;9.90;;;;;;;7.37;100.00;101705.63;5287546;28;20138;-70
2022/09/23 02:08:18;;;;;;;21.63;10.77;;;;;;;7.33;100.00;101704.19;5267994;28;20036;-70
2022/09/23 02:10:53;;;;;;;;;;;;;;;7.29;100.00;101700.09;5266164;28;20411;-70
2022/09/23 02:13:46;;;;;;;16.48;9.60;;;;;;;7.27;100.00;101697.53;5260547;28;19908;-71
2022/09/23 02:16:38;;;;;;;13.43;7.47;;;;;;;7.21;100.00;101700.69;5269986;28;20015;-71
2022/09/23 02:19:14;;;;;;;13.25;5.65;;;;;;;7.13;100.00;101693.31;5272006;28;20020;-71
2022/09/23 02:21:51;;;;;;;10.93;6.28;;;;;;;7.08;100.00;101700.84;5276692;28;20092;-72
2022/09/23 02:24:29;;;;;;;18.85;8.07;;;;;;;7.04;100.00;101701.22;5269696;28;20399;-72
2022/09/23 02:27:24;;;;;;;126.20;13.43;;;;;;;7.00;100.00;101693.44;5279915;28;20067;-71
2022/09/23 02:30:11;;;;;;;13.10;7.57;;;;;;;6.96;100.00;101685.81;5275204;28;20027;-71
2022/09/23 02:32:52;;;;;;;14.15;7.82;;;;;;;6.90;100.00;101687.13;5279613;28;20034;-71
2022/09/23 02:35:31;;;;;;;20.38;8.45;;;;;;;6.87;100.00;101686.53;5285612;28;20020;-71
2022/09/23 02:38:37;;;;;;;20.65;8.77;;;;;;;6.84;100.00;101684.97;5274707;28;20357;-71
2022/09/23 02:41:31;;;;;;;12.43;7.23;;;;;;;6.81;100.00;101681.69;5275119;28;20103;-70
2022/09/23 02:44:07;;;;;;;13.00;7.97;;;;;;;6.80;100.00;101677.31;5282177;28;20085;-70
2022/09/23 02:46:38;;;;;;;12.98;8.50;;;;;;;6.78;100.00;101673.91;5283913;28;20376;-70
2022/09/23 02:49:29;;;;;;;15.32;9.35;;;;;;;6.80;100.00;101666.66;5274630;28;20023;-70
2022/09/23 02:52:03;;;;;;;11.13;7.22;;;;;;;6.78;100.00;101669.47;5266803;28;20016;-70
2022/09/23 02:54:36;;;;;;;12.77;8.50;;;;;;;6.72;100.00;101653.91;5264132;28;20114;-72
2022/09/23 02:57:07;;;;;;;13.23;8.02;;;;;;;6.69;100.00;101651.50;5264910;28;20050;-72
2022/09/23 02:59:38;;;;;;;20.52;8.40;;;;;;;6.69;100.00;101663.03;5281240;28;20102;-72
2022/09/23 03:02:22;;;;;;;18.95;7.05;;;;;;;6.75;100.00;101651.88;5268754;28;20434;-71
2022/09/23 03:05:24;;;;;;;23.23;7.45;;;;;;;6.79;100.00;101665.81;5266327;28;20026;-70
2022/09/23 03:08:24;;;;;;;13.48;7.70;;;;;;;6.79;100.00;101673.81;5281989;28;20050;-70
2022/09/23 03:11:14;;;;;;;12.43;8.82;;;;;;;6.82;100.00;101667.38;5272038;28;20036;-70
2022/09/23 03:14:16;;;;;;;17.98;9.63;;;;;;;6.84;100.00;101671.63;5274579;28;20027;-70
2022/09/23 03:17:04;;;;;;;13.82;7.93;;;;;;;6.86;100.00;101664.34;5265232;28;20454;-70
2022/09/23 03:19:45;;;;;;;12.02;7.97;;;;;;;6.87;100.00;101667.84;5270411;28;20500;-71
2022/09/23 03:22:24;;;;;;;16.63;7.68;;;;;;;6.87;100.00;101660.69;5272500;28;20467;-71
2022/09/23 03:25:00;;;;;;;13.00;7.22;;;;;;;6.88;100.00;101667.75;5275413;28;20034;-71
2022/09/23 03:27:33;;;;;;;12.93;7.22;;;;;;;6.89;100.00;101664.13;5273681;28;20024;-71
2022/09/23 03:30:06;;;;;;;14.00;8.43;;;;;;;6.92;100.00;101660.34;5268247;28;20024;-71
2022/09/23 03:32:38;;;;;;;13.27;8.10;;;;;;;6.93;100.00;101662.06;5288385;28;20028;-71
2022/09/23 03:35:09;;;;;;;13.85;7.63;;;;;;;6.95;100.00;101666.28;5289084;28;20039;-71
2022/09/23 03:37:51;;;;;;;13.68;8.00;;;;;;;6.96;100.00;101664.47;5289762;28;20024;-72
2022/09/23 03:40:25;;;;;;;12.65;7.78;;;;;;;6.92;100.00;101663.84;5276069;28;20062;-72
2022/09/23 03:42:57;;;;;;;11.87;8.07;;;;;;;6.92;100.00;101655.84;5289403;28;20050;-72
2022/09/23 03:45:31;;;;;;;15.35;8.43;;;;;;;6.90;100.00;101663.13;5288958;28;20020;-71
2022/09/23 03:48:02;;;;;;;13.93;8.90;;;;;;;6.88;100.00;101657.09;5271368;28;20061;-71
2022/09/23 03:50:34;;;;;;;14.68;9.07;;;;;;;6.86;100.00;101656.34;5275984;28;20485;-71
2022/09/23 03:53:05;;;;;;;17.40;9.15;;;;;;;6.84;100.00;101647.63;5273649;28;20614;-71
2022/09/23 03:55:38;;;;;;;16.70;8.80;;;;;;;6.82;100.00;101649.53;5276898;28;20108;-71
2022/09/23 03:58:08;;;;;;;15.40;9.43;;;;;;;6.80;100.00;101640.00;5275186;28;20114;-70
2022/09/23 04:00:39;;;;;;;17.33;8.52;;;;;;;6.79;100.00;101635.63;5278564;28;20496;-70
2022/09/23 04:03:09;;;;;;;16.17;8.27;;;;;;;6.77;100.00;101633.06;5289071;28;20020;-70
2022/09/23 04:05:40;;;;;;;18.25;8.70;;;;;;;6.75;100.00;101632.34;5276495;28;20507;-70
2022/09/23 04:08:10;;;;;;;15.68;7.03;;;;;;;6.73;100.00;101628.97;5268670;28;20435;-71
2022/09/23 04:10:41;;;;;;;8.65;5.65;;;;;;;6.72;100.00;101621.91;5276355;28;20607;-70
2022/09/23 04:13:11;;;;;;;14.18;7.65;;;;;;;6.72;100.00;101628.09;5267981;28;20051;-70
2022/09/23 04:15:42;;;;;;;12.00;7.97;;;;;;;6.73;100.00;101624.47;5280705;28;20028;-70
2022/09/23 04:18:12;;;;;;;10.15;7.47;;;;;;;6.78;100.00;101623.25;5267852;28;20028;-70
2022/09/23 04:20:42;;;;;;;14.48;7.28;;;;;;;6.80;100.00;101624.00;5268245;28;20032;-71
2022/09/23 04:23:13;;;;;;;13.10;7.72;;;;;;;6.82;100.00;101620.22;5268172;28;20443;-70
2022/09/23 04:25:46;;;;;;;11.73;7.20;;;;;;;6.85;100.00;101624.47;5267710;28;20043;-71
2022/09/23 04:28:16;;;;;;;13.23;8.55;;;;;;;6.87;100.00;101626.03;5275670;28;20028;-70
2022/09/23 04:30:47;;;;;;;23.80;9.93;;;;;;;6.91;100.00;101629.31;5282132;28;20574;-70
2022/09/23 04:33:18;;;;;;;18.27;10.02;;;;;;;6.92;100.00;101626.50;5287655;28;20137;-70
2022/09/23 04:35:51;;;;;;;16.00;9.27;;;;;;;6.96;100.00;101622.63;5284259;28;20007;-70
2022/09/23 04:38:21;;;;;;;15.73;9.75;;;;;;;7.01;100.00;101616.91;5276599;28;20028;-71
2022/09/23 04:40:52;;;;;;;22.50;9.88;;;;;;;7.00;100.00;101615.22;5268026;28;20020;-71
2022/09/23 04:43:22;;;;;;;15.10;8.98;;;;;;;7.00;100.00;101617.91;5282468;28;20039;-71
2022/09/23 04:46:12;;;;;;;17.13;9.10;;;;;;;7.01;100.00;101617.75;5278179;28;20496;-71
2022/09/23 04:48:43;;;;;;;13.57;8.45;;;;;;;6.99;100.00;101630.38;5266959;28;20103;-72
2022/09/23 04:51:17;;;;;;;14.85;8.98;;;;;;;7.00;100.00;101616.06;5266979;28;20103;-70
2022/09/23 04:53:49;;;;;;;14.18;8.40;;;;;;;7.00;100.00;101620.56;5274245;28;20023;-71
2022/09/23 04:56:23;;;;;;;21.42;9.60;;;;;;;6.98;100.00;101615.34;5253776;28;20371;-71
2022/09/23 04:58:56;;;;;;;16.83;9.43;;;;;;;6.97;100.00;101623.47;5279442;28;20110;-71
2022/09/23 05:01:29;;;;;;;20.23;9.07;;;;;;;6.98;100.00;101628.69;5270843;28;20032;-71
2022/09/23 05:04:04;;;;;;;16.13;9.07;;;;;;;6.98;100.00;101623.38;5285065;28;20042;-71
2022/09/23 05:06:35;;;;;;;17.73;9.48;;;;;;;6.97;100.00;101623.47;5281346;28;20038;-71
2022/09/23 05:09:07;;;;;;;17.77;10.40;;;;;;;6.94;100.00;101624.56;5266758;28;20520;-71
2022/09/23 05:11:37;;;;;;;16.02;9.52;;;;;;;6.91;100.00;101623.97;5273854;28;20107;-71
2022/09/23 05:14:08;;;;;;;15.10;8.73;;;;;;;6.90;100.00;101624.94;5272241;28;20115;-73
2022/09/23 05:16:39;;;;;;;13.02;8.45;;;;;;;6.91;100.00;101623.97;5266407;28;20493;-72
2022/09/23 05:19:10;;;;;;;16.10;9.27;;;;;;;6.92;100.00;101629.16;5280229;28;20308;-72
2022/09/23 05:21:41;;;;;;;18.88;9.27;;;;;;;6.91;100.00;101631.97;5266531;28;20369;-72
2022/09/23 05:24:11;;;;;;;18.05;9.85;;;;;;;6.90;100.00;101631.13;5265322;28;20488;-73
2022/09/23 05:26:42;;;;;;;17.02;9.90;;;;;;;6.92;100.00;101642.50;5269979;28;20442;-73
2022/09/23 05:29:12;;;;;;;20.85;10.23;;;;;;;6.90;100.00;101628.47;5273600;28;20538;-73
2022/09/23 05:31:43;;;;;;;19.77;10.30;;;;;;;6.93;100.00;101630.03;5278894;28;20049;-73
2022/09/23 05:34:13;;;;;;;17.15;10.45;;;;;;;6.94;100.00;101632.56;5267764;28;20061;-73
2022/09/23 05:36:45;;;;;;;15.02;9.40;;;;;;;6.93;100.00;101628.22;5287843;28;20067;-74
2022/09/23 05:39:15;;;;;;;17.02;9.77;;;;;;;6.92;100.00;101636.31;5278334;28;20096;-72
2022/09/23 05:41:46;;;;;;;22.02;9.25;;;;;;;6.92;100.00;101642.50;5267994;28;20499;-71
2022/09/23 05:44:16;;;;;;;18.50;9.85;;;;;;;6.93;100.00;101636.22;5287036;28;20412;-71
2022/09/23 05:46:47;;;;;;;18.13;10.00;;;;;;;6.95;100.00;101638.75;5270232;28;20110;-71
2022/09/23 05:49:18;;;;;;;16.67;9.52;;;;;;;6.96;100.00;101640.44;5276045;28;20111;-71
2022/09/23 05:51:48;;;;;;;23.00;9.23;;;;;;;6.98;100.00;101642.03;5282375;28;20047;-71
2022/09/23 05:54:19;;;;;;;19.35;9.85;;;;;;;7.01;100.00;101635.59;5265339;28;20039;-72
2022/09/23 05:56:49;;;;;;;19.02;9.43;;;;;;;7.06;100.00;101644.06;5265991;28;20080;-71
2022/09/23 05:59:19;;;;;;;18.63;10.43;;;;;;;7.10;100.00;101642.00;5269002;28;20153;-72
2022/09/23 06:01:50;;;;;;;17.10;10.18;;;;;;;7.16;100.00;101638.84;5266020;28;20083;-71
2022/09/23 06:04:20;;;;;;;18.40;9.40;;;;;;;7.20;100.00;101643.81;5272708;28;20073;-71
2022/09/23 06:06:51;;;;;;;20.38;9.63;;;;;;;7.26;100.00;101629.94;5265696;28;20059;-72
2022/09/23 06:09:22;;;;;;;18.95;8.90;;;;;;;7.37;100.00;101636.22;5266745;28;20042;-71
2022/09/23 06:11:52;;;;;;;11.63;7.82;;;;;;;7.46;100.00;101638.16;5275446;28;20414;-71
2022/09/23 06:14:23;;;;;;;14.35;9.05;;;;;;;7.53;100.00;101637.53;5284098;28;20467;-71
2022/09/23 06:16:53;;;;;;;16.00;9.25;;;;;;;7.63;100.00;101634.94;5267070;28;20055;-71
2022/09/23 06:19:24;;;;;;;20.55;10.18;;;;;;;7.74;100.00;101628.69;5279130;28;20023;-72
2022/09/23 06:21:54;;;;;;;19.27;10.25;;;;;;;7.88;100.00;101630.19;5276715;28;20074;-72
2022/09/23 06:24:25;;;;;;;19.58;8.95;;;;;;;8.01;100.00;101628.19;5266613;28;20055;-71
2022/09/23 06:26:55;;;;;;;17.38;8.60;;;;;;;8.20;100.00;101622.13;5277760;28;20131;-71
2022/09/23 06:29:26;;;;;;;17.45;9.05;;;;;;;8.40;100.00;101626.63;5279500;28;20552;-71
2022/09/23 06:31:58;;;;;;;19.15;8.75;;;;;;;8.55;100.00;101619.94;5278747;28;20012;-70
2022/09/23 06:34:28;;;;;;;15.05;8.13;;;;;;;8.72;100.00;101623.78;5281236;28;20063;-69
2022/09/23 06:36:59;;;;;;;14.80;7.95;;;;;;;8.86;100.00;101617.22;5286287;28;20433;-69
2022/09/23 06:39:29;;;;;;;16.85;8.30;;;;;;;9.03;100.00;101618.38;5276135;28;20058;-69
2022/09/23 06:42:00;;;;;;;17.27;9.10;;;;;;;9.18;100.00;101617.00;5264935;28;20084;-69
2022/09/23 06:44:30;;;;;;;17.67;8.40;;;;;;;9.36;100.00;101625.22;5274106;28;20108;-70
2022/09/23 06:47:01;;;;;;;15.50;8.35;;;;;;;9.50;100.00;101619.44;5278899;28;20813;-70
2022/09/23 06:49:32;;;;;;;18.52;9.43;;;;;;;9.63;100.00;101621.84;5273069;28;20260;-69
2022/09/23 06:52:04;;;;;;;17.05;9.48;;;;;;;9.76;100.00;101617.03;5283075;28;20020;-70
2022/09/23 06:54:36;;;;;;;21.27;9.80;;;;;;;9.93;100.00;101618.13;5282662;28;20391;-70
2022/09/23 06:57:08;;;;;;;14.02;8.25;;;;;;;10.14;100.00;101623.34;5283064;28;20031;-69
2022/09/23 06:59:40;;;;;;;15.05;9.10;;;;;;;10.40;100.00;101625.44;5268970;28;20108;-70
2022/09/23 07:02:11;;;;;;;18.77;7.57;;;;;;;10.69;100.00;101623.44;5284484;28;20054;-70
2022/09/23 07:04:41;;;;;;;14.32;7.88;;;;;;;10.88;100.00;101614.47;5285856;28;20098;-69
2022/09/23 07:07:15;;;;;;;13.90;7.88;;;;;;;11.05;100.00;101620.91;5286881;28;20027;-70
2022/09/23 07:09:45;;;;;;;19.17;8.82;;;;;;;11.30;100.00;101624.69;5286483;28;20032;-70
2022/09/23 07:12:16;;;;;;;20.63;8.93;;;;;;;11.50;100.00;101620.88;5287340;28;20441;-70
2022/09/23 07:14:46;;;;;;;14.18;7.38;;;;;;;11.74;100.00;101617.53;5272210;28;20054;-70
2022/09/23 07:17:16;;;;;;;22.00;10.13;;;;;;;11.78;100.00;101621.59;5272994;28;20069;-70
2022/09/23 07:19:47;;;;;;;20.30;10.70;;;;;;;11.83;100.00;101619.31;5278116;28;20016;-70
2022/09/23 07:22:17;;;;;;;17.23;8.95;;;;;;;11.85;100.00;101616.50;5267537;28;20034;-70
2022/09/23 07:24:48;;;;;;;17.95;8.52;;;;;;;11.88;100.00;101621.53;5285762;28;20035;-69
2022/09/23 07:27:18;;;;;;;15.80;7.88;;;;;;;12.00;100.00;101612.25;5278494;28;20202;-70
2022/09/23 07:29:50;;;;;;;18.27;8.18;;;;;;;12.15;100.00;101615.22;5274343;28;20020;-70
2022/09/23 07:32:21;;;;;;;17.35;8.23;;;;;;;12.26;100.00;101603.34;5275577;28;20019;-70
2022/09/23 07:34:52;;;;;;;16.80;7.60;;;;;;;12.38;100.00;101608.28;5285132;28;20107;-70
2022/09/23 07:37:23;;;;;;;13.93;7.60;;;;;;;12.53;100.00;101613.06;5279565;28;20051;-70
2022/09/23 07:39:54;;;;;;;18.17;7.97;;;;;;;12.65;100.00;101612.63;5265435;28;20099;-70
2022/09/23 07:42:25;;;;;;;12.82;6.95;;;;;;;12.76;100.00;101607.97;5254026;28;20385;-70
2022/09/23 07:44:56;;;;;;;14.70;7.10;;;;;;;12.72;100.00;101620.06;5271642;28;20027;-70
2022/09/23 07:47:26;;;;;;;14.65;6.93;;;;;;;12.77;100.00;101615.03;5285937;28;20035;-70
2022/09/23 07:49:57;;;;;;;17.63;6.78;;;;;;;12.76;100.00;101616.88;5282639;28;20062;-70
2022/09/23 07:52:27;;;;;;;14.48;7.07;;;;;;;12.76;100.00;101614.19;5274411;28;20365;-70
2022/09/23 07:54:58;;;;;;;14.00;6.75;;;;;;;12.74;100.00;101610.81;5270943;28;20114;-70
2022/09/23 07:57:29;;;;;;;12.32;6.53;;;;;;;12.80;100.00;101615.56;5274930;28;20034;-70
2022/09/23 08:00:00;;;;;;;16.70;6.90;;;;;;;12.90;100.00;101621.66;5266582;28;20520;-70
2022/09/23 08:02:30;;;;;;;13.77;6.47;;;;;;;13.02;100.00;101610.59;5270868;28;20106;-71
2022/09/23 08:05:01;;;;;;;12.82;6.43;;;;;;;13.09;100.00;101619.69;5277718;28;20028;-71
2022/09/23 08:07:33;;;;;;;15.82;6.78;;;;;;;13.13;100.00;101624.56;5264223;28;20027;-71
2022/09/23 08:10:05;;;;;;;14.07;5.70;;;;;;;13.22;100.00;101625.50;5263986;28;20027;-71
2022/09/23 08:12:35;;;;;;;12.27;6.30;;;;;;;13.38;100.00;101622.81;5263974;28;20046;-71
2022/09/23 08:15:06;;;;;;;11.80;5.93;;;;;;;13.50;100.00;101631.41;5273064;28;20023;-71
2022/09/23 08:17:36;;;;;;;15.65;6.40;;;;;;;13.66;100.00;101620.69;5284453;28;20522;-71
2022/09/23 08:20:42;;;;;;;18.20;6.95;;;;;;;13.86;100.00;101628.44;5274483;28;20081;-71
2022/09/23 08:22:58;;;;;;;18.20;6.85;;;;;;;14.02;100.00;101620.34;5265213;28;20451;-71
2022/09/23 08:25:28;;;;;;;14.50;6.40;;;;;;;14.24;100.00;101624.16;5281199;28;20026;-72
2022/09/23 08:28:00;;;;;;;15.98;7.13;;;;;;;14.32;100.00;101623.31;5284570;28;20030;-72
2022/09/23 08:30:31;;;;;;;17.80;6.50;;;;;;;14.40;100.00;101616.03;5250056;28;20123;-71
2022/09/23 08:33:01;;;;;;;13.40;6.60;;;;;;;14.28;100.00;101616.59;5270600;28;20016;-71
2022/09/23 08:35:32;;;;;;;18.90;7.25;;;;;;;14.36;100.00;101619.28;5279748;28;20015;-72
2022/09/23 08:38:02;;;;;;;20.05;6.40;;;;;;;14.51;100.00;101614.88;5273408;28;20484;-70
2022/09/23 08:40:36;;;;;;;21.08;6.72;;;;;;;14.63;100.00;101616.19;5276297;28;20487;-70
2022/09/23 08:43:18;;;;;;;16.90;6.25;;;;;;;14.91;100.00;101621.13;5273393;28;20458;-70
2022/09/23 08:45:49;;;;;;;15.77;6.47;;;;;;;15.05;100.00;101617.66;5262155;28;20039;-70
2022/09/23 08:48:42;;;;;;;14.40;6.82;;;;;;;15.28;100.00;101626.66;5258728;28;20051;-71
2022/09/23 08:51:16;;;;;;;17.55;6.00;;;;;;;15.55;100.00;101616.34;5276097;28;20026;-71
2022/09/23 08:53:47;;;;;;;14.18;5.70;;;;;;;15.78;100.00;101622.63;5263012;28;20285;-71
2022/09/23 08:56:21;;;;;;;10.85;5.47;;;;;;;15.90;100.00;101636.56;5245488;28;20138;-71
2022/09/23 08:59:14;;;;;;;13.45;5.55;;;;;;;16.08;100.00;101638.97;5283665;28;20023;-71
2022/09/23 09:02:09;;;;;;;14.38;5.32;;;;;;;16.26;100.00;101635.88;5263786;28;20031;-71
2022/09/23 09:04:43;;;;;;;17.70;5.57;;;;;;;16.48;100.00;101645.00;5270625;28;20488;-71
2022/09/23 09:07:20;;;;;;;15.43;5.55;;;;;;;16.88;100.00;101641.00;5262922;28;20473;-71
2022/09/23 09:10:12;;;;;;;13.25;5.28;;;;;;;16.79;100.00;101636.72;5276456;28;20024;-71
2022/09/23 09:13:03;;;;;;;20.10;5.25;;;;;;;16.98;100.00;101632.59;5279466;28;20031;-71
2022/09/23 09:15:55;;;;;;;13.90;5.60;;;;;;;17.20;100.00;101622.63;5269672;28;20054;-71
2022/09/23 09:18:29;;;;;;;16.55;5.93;;;;;;;17.23;100.00;101623.09;5254438;28;20492;-71
2022/09/23 09:21:07;;;;;;;10.98;5.07;;;;;;;17.54;100.00;101620.06;5265797;28;20024;-71
2022/09/23 09:23:56;;;;;;;15.10;6.00;;;;;;;17.26;100.00;101619.13;5262225;28;20031;-71
2022/09/23 09:26:31;;;;;;;20.65;5.50;;;;;;;17.21;100.00;101608.84;5262993;28;20059;-71
2022/09/23 09:29:03;;;;;;;18.88;6.32;;;;;;;17.37;100.00;101613.22;5266427;28;20047;-71
2022/09/23 09:31:52;;;;;;;13.55;5.07;;;;;;;17.70;100.00;101612.72;5266782;28;20035;-72
2022/09/23 09:34:23;;;;;;;11.85;5.30;;;;;;;17.89;100.00;101605.81;5264610;28;20501;-72
2022/09/23 09:37:17;;;;;;;13.98;5.57;;;;;;;18.22;100.00;101603.34;5280968;28;20023;-72
2022/09/23 09:39:48;;;;;;;18.17;5.15;;;;;;;17.94;100.00;101603.34;5262377;28;20190;-72
2022/09/23 09:42:25;;;;;;;14.18;5.82;;;;;;;18.06;100.00;101602.59;5278883;28;20541;-72
2022/09/23 09:45:18;;;;;;;10.48;5.18;;;;;;;18.02;100.00;101609.47;5281954;28;20016;-72
2022/09/23 09:48:09;;;;;;;17.80;5.82;;;;;;;18.00;100.00;101602.56;5283891;28;20546;-72
2022/09/23 09:51:17;;;;;;;15.18;6.55;;;;;;;18.06;100.00;101602.59;5274903;28;20035;-72
2022/09/23 09:56:40;;;;;;;12.48;4.88;;;;;;;17.59;100.00;101601.34;5276835;28;20115;-72
2022/09/23 09:59:20;;;;;;;14.77;5.25;;;;;;;17.73;100.00;101601.50;5280711;28;20614;-72
2022/09/23 10:02:20;;;;;;;19.30;4.85;;;;;;;17.85;100.00;101595.34;5280041;28;20031;-72
2022/09/23 10:05:05;;;;;;;15.82;5.53;;;;;;;17.98;100.00;101605.47;5280290;28;20022;-72
2022/09/23 10:07:36;;;;;;;21.27;5.68;;;;;;;17.78;100.00;101604.47;5280718;28;20464;-72
2022/09/23 10:10:21;;;;;;;11.68;5.45;;;;;;;17.64;100.00;101608.06;5280250;28;20022;-72
2022/09/23 10:12:51;;;;;;;15.77;5.53;;;;;;;17.88;100.00;101598.72;5280780;28;20034;-72
2022/09/23 10:15:42;;;;;;;12.13;4.95;;;;;;;18.10;100.00;101594.91;5280519;28;20553;-72
2022/09/23 10:18:34;;;;;;;15.63;5.63;;;;;;;18.32;100.00;101595.69;5280676;28;20149;-72
2022/09/23 10:21:09;;;;;;;17.60;6.40;;;;;;;18.48;100.00;101589.94;5281050;28;20019;-72
2022/09/23 10:23:44;;;;;;;13.32;6.50;;;;;;;18.81;100.00;101592.00;5281292;28;20032;-72
2022/09/23 10:26:17;;;;;;;13.77;5.97;;;;;;;18.98;100.00;101590.63;5281997;28;20072;-72
2022/09/23 10:28:50;;;;;;;13.25;5.70;;;;;;;19.06;100.00;101589.59;5281920;28;20281;-72
2022/09/23 10:31:38;;;;;;;17.33;6.55;;;;;;;19.53;100.00;101587.81;5281905;28;20374;-72
2022/09/23 10:34:25;;;;;;;12.30;5.43;;;;;;;19.84;100.00;101585.38;5281323;28;20385;-72
2022/09/23 10:37:32;;;;;;;14.68;6.05;;;;;;;20.08;100.00;101591.19;5281909;28;20020;-73
2022/09/23 10:46:46;;;;;;;15.38;5.03;;;;;;;20.21;100.00;101582.19;5283652;28;20023;-72
2022/09/23 10:49:32;;;;;;;13.15;5.30;;;;;;;20.02;100.00;101587.44;5281976;28;20074;-72
2022/09/23 10:52:26;;;;;;;14.65;6.85;;;;;;;20.15;100.00;101586.59;5280565;28;20087;-72
2022/09/23 10:55:15;;;;;;;16.60;6.28;;;;;;;20.01;100.00;101588.50;5274408;28;20127;-72
2022/09/23 10:57:45;;;;;;;15.30;5.40;;;;;;;19.79;100.00;101590.59;5278563;28;20038;-72
2022/09/23 11:00:36;;;;;;;12.85;4.90;;;;;;;19.77;100.00;101584.50;5279974;28;20362;-72
2022/09/23 11:03:38;;;;;;;14.82;5.00;;;;;;;19.61;100.00;101583.03;5282307;28;20028;-72
2022/09/23 11:06:30;;;;;;;16.48;4.97;;;;;;;19.65;100.00;101583.47;5260309;28;20024;-73
2022/09/23 11:09:30;;;;;;;16.23;4.45;;;;;;;19.69;100.00;101581.19;5274680;28;20028;-73
2022/09/23 11:12:27;;;;;;;11.52;3.85;;;;;;;19.79;100.00;101576.16;5271571;28;20413;-73
2022/09/23 11:15:23;;;;;;;12.15;4.10;;;;;;;19.76;100.00;101577.41;5259699;28;20031;-73
2022/09/23 11:18:18;;;;;;;13.68;4.03;;;;;;;19.66;100.00;101583.25;5280280;28;20059;-73
2022/09/23 11:21:05;;;;;;;11.93;3.88;;;;;;;19.81;100.00;101577.59;5282233;28;20020;-73
2022/09/23 11:23:43;;;;;;;10.63;4.22;;;;;;;19.72;100.00;101575.31;5269282;28;20103;-73
2022/09/23 11:26:30;;;;;;;17.58;5.45;;;;;;;19.53;100.00;101576.91;5273622;28;20036;-73
2022/09/23 11:29:27;;;;;;;21.13;3.80;;;;;;;19.58;100.00;101575.28;5261032;28;20023;-72
2022/09/23 11:32:06;;;;;;;12.18;4.10;;;;;;;19.49;100.00;101575.69;5276137;28;20016;-72
2022/09/23 11:35:15;;;;;;;8.13;4.00;;;;;;;19.42;100.00;101564.78;5280923;28;20015;-73
2022/09/23 11:37:50;;;;;;;11.02;3.80;;;;;;;19.28;100.00;101569.38;5269686;28;20031;-72
2022/09/23 11:40:29;;;;;;;8.32;3.33;;;;;;;19.26;100.00;101566.00;5282382;28;20381;-72
2022/09/23 11:43:23;;;;;;;9.75;3.25;;;;;;;19.43;100.00;101555.59;5282353;28;20076;-72
2022/09/23 11:46:13;;;;;;;10.40;3.30;;;;;;;19.68;100.00;101547.69;5259862;28;20020;-73
2022/09/23 11:48:55;;;;;;;8.27;3.30;;;;;;;19.77;100.00;101548.28;5268978;28;20039;-72
2022/09/23 11:52:03;;;;;;;6.25;3.35;;;;;;;20.04;100.00;101549.94;5286199;28;20057;-72
2022/09/23 11:54:56;;;;;;;8.02;3.00;;;;;;;20.17;100.00;101547.19;5282850;28;20035;-73
2022/09/23 11:57:48;;;;;;;8.20;2.90;;;;;;;20.29;100.00;101544.66;5262778;28;20028;-73
2022/09/23 12:00:21;;;;;;;12.20;3.10;;;;;;;20.34;100.00;101539.41;5263837;28;20036;-73
2022/09/23 12:03:17;;;;;;;6.65;3.10;;;;;;;20.49;100.00;101543.81;5282719;28;20497;-73
2022/09/23 12:05:57;;;;;;;12.93;3.03;;;;;;;20.59;100.00;101545.03;5263518;28;20024;-73
2022/09/23 12:08:32;;;;;;;9.75;3.70;;;;;;;20.63;100.00;101534.50;5272858;28;20038;-73
2022/09/23 12:11:26;;;;;;;17.38;8.25;;;;;;;20.82;100.00;101540.94;5282056;28;20246;-73
2022/09/23 12:14:15;;;;;;;10.65;3.78;;;;;;;20.35;100.00;101542.97;5277786;28;20094;-73